Time;durP1;ratioP1;P1;durP2;ratioP2;P2;SDS_P1;SDS_P2;PMS_P1;PMS_P2;Temp;Humidity;BMP_temperature;BMP_pressure;BME280_temperature;BME280_humidity;BME280_pressure;Samples;Min_cycle;Max_cycle;Signal;HPM_P1;HPM_P2
2023/09/15 00:05:12;;;;;;;12.87;12.43;;;17.60;99.90;;;;;;5489370;22;20485;-85
2023/09/15 00:07:48;;;;;;;13.80;13.30;;;17.60;99.90;;;;;;5046130;28;20475;-85
2023/09/15 00:14:57;;;;;;;13.47;12.87;;;17.40;99.90;;;;;;4992272;28;20462;-90
2023/09/15 00:21:55;;;;;;;13.43;12.97;;;17.30;99.90;;;;;;5088890;22;20871;-83
2023/09/15 00:24:23;;;;;;;13.33;12.93;;;17.40;1.00;;;;;;5008621;28;20470;-83
2023/09/15 00:27:19;;;;;;;13.67;13.13;;;17.40;99.90;;;;;;4989534;28;20445;-85
2023/09/15 00:29:47;;;;;;;13.20;12.73;;;17.40;1.00;;;;;;5007214;28;20485;-82
2023/09/15 00:32:22;;;;;;;14.20;13.50;;;17.40;99.90;;;;;;5073169;23;20928;-80
2023/09/15 00:35:16;;;;;;;13.03;12.53;;;17.30;1.00;;;;;;4952183;28;20617;-85
2023/09/15 00:38:40;;;;;;;13.37;12.77;;;17.30;1.00;;;;;;5053239;23;20484;-91
2023/09/15 00:41:08;;;;;;;13.87;13.37;;;17.20;1.00;;;;;;5036650;28;20456;-80
2023/09/15 00:43:38;;;;;;;13.87;13.27;;;17.20;1.00;;;;;;5038873;28;20486;-82
2023/09/15 00:46:06;;;;;;;13.20;12.70;;;17.20;1.00;;;;;;5040230;28;20453;-82
2023/09/15 00:48:34;;;;;;;13.93;13.30;;;17.10;1.00;;;;;;5041766;28;20463;-80
2023/09/15 00:51:06;;;;;;;13.40;12.70;;;17.10;1.00;;;;;;5040278;28;20459;-80
2023/09/15 00:53:36;;;;;;;13.70;13.20;;;17.10;1.00;;;;;;5034916;28;20500;-83
2023/09/15 00:56:08;;;;;;;13.97;13.43;;;17.10;1.00;;;;;;5050538;28;20472;-82
2023/09/15 00:58:41;;;;;;;13.97;13.23;;;17.00;1.00;;;;;;5045605;28;20937;-83
2023/09/15 01:05:04;;;;;;;13.47;12.90;;;17.00;1.00;;;;;;5209284;22;20599;-82
2023/09/15 01:07:34;;;;;;;13.60;13.00;;;17.00;1.00;;;;;;5053879;28;20549;-83
2023/09/15 01:10:03;;;;;;;13.63;13.13;;;17.00;1.00;;;;;;5039478;28;20456;-84
2023/09/15 01:12:33;;;;;;;13.83;13.33;;;17.00;1.00;;;;;;5213893;22;20572;-86
2023/09/15 01:15:03;;;;;;;13.50;12.80;;;17.00;1.00;;;;;;5054558;28;20476;-83
2023/09/15 01:17:42;;;;;;;13.70;13.20;;;16.90;1.00;;;;;;5039791;28;20460;-80
2023/09/15 01:20:18;;;;;;;13.43;13.03;;;16.90;1.00;;;;;;5043019;28;20469;-81
2023/09/15 01:23:18;;;;;;;13.70;13.20;;;16.90;1.00;;;;;;5038879;28;21012;-81
2023/09/15 01:26:16;;;;;;;13.27;12.87;;;16.80;1.00;;;;;;5033680;28;20456;-82
2023/09/15 01:29:10;;;;;;;13.40;12.90;;;16.90;1.00;;;;;;5015717;28;20452;-81
2023/09/15 01:31:40;;;;;;;13.53;13.13;;;16.80;1.00;;;;;;5034641;28;20440;-81
2023/09/15 01:34:13;;;;;;;13.40;12.80;;;16.80;1.00;;;;;;5030135;28;21254;-83
2023/09/15 01:36:41;;;;;;;13.50;13.00;;;16.70;1.00;;;;;;5034669;28;20480;-81
2023/09/15 01:39:09;;;;;;;13.80;13.30;;;16.60;1.00;;;;;;5013179;28;20460;-79
2023/09/15 01:41:37;;;;;;;13.50;13.00;;;16.60;1.00;;;;;;5033105;28;20460;-80
2023/09/15 01:44:05;;;;;;;14.23;13.73;;;16.70;1.00;;;;;;5033750;28;20534;-81
2023/09/15 01:46:34;;;;;;;14.47;13.67;;;16.80;1.00;;;;;;5033899;28;20453;-81
2023/09/15 01:49:04;;;;;;;14.90;14.30;;;16.70;1.00;;;;;;5027633;28;20460;-81
2023/09/15 01:51:32;;;;;;;13.87;13.30;;;16.70;1.00;;;;;;5036042;28;20475;-81
2023/09/15 01:54:00;;;;;;;13.77;13.27;;;16.80;1.00;;;;;;5024446;28;20471;-82
2023/09/15 01:56:29;;;;;;;14.77;14.17;;;16.70;1.00;;;;;;5033490;28;20532;-81
2023/09/15 01:58:57;;;;;;;14.57;13.97;;;16.70;1.00;;;;;;5034414;28;20947;-81
2023/09/15 02:01:25;;;;;;;13.63;13.03;;;16.80;1.00;;;;;;5034873;28;20445;-81
2023/09/15 02:06:46;;;;;;;13.40;13.00;;;16.70;1.00;;;;;;5020003;23;20500;-80
2023/09/15 02:09:15;;;;;;;14.17;13.67;;;16.60;1.00;;;;;;4978888;28;20478;-80
2023/09/15 02:11:44;;;;;;;13.90;13.40;;;16.60;1.00;;;;;;4999739;28;20465;-80
2023/09/15 02:14:12;;;;;;;13.73;13.30;;;16.60;1.00;;;;;;4983333;28;21384;-77
2023/09/15 02:16:42;;;;;;;13.90;13.40;;;16.50;1.00;;;;;;4977925;28;20492;-77
2023/09/15 02:19:10;;;;;;;14.40;13.90;;;16.50;1.00;;;;;;4976829;28;20459;-81
2023/09/15 02:21:38;;;;;;;14.57;13.80;;;16.50;1.00;;;;;;4980255;28;20477;-84
2023/09/15 02:24:09;;;;;;;13.83;13.33;;;16.50;1.00;;;;;;4983464;28;20470;-84
2023/09/15 02:26:37;;;;;;;14.27;13.77;;;16.40;1.00;;;;;;4979278;28;20454;-80
2023/09/15 02:29:05;;;;;;;13.87;13.37;;;16.40;1.00;;;;;;5123226;22;20522;-83
2023/09/15 02:37:30;;;;;;;13.73;13.23;;;16.50;1.00;;;;;;5551751;22;20482;-85
2023/09/15 02:40:13;;;;;;;14.50;13.87;;;16.40;1.00;;;;;;5032686;28;20807;-88
2023/09/15 02:42:42;;;;;;;13.93;13.40;;;16.40;1.00;;;;;;5034204;28;20451;-84
2023/09/15 02:45:11;;;;;;;12.87;12.53;;;16.40;1.00;;;;;;5032433;28;20885;-85
2023/09/15 02:48:07;;;;;;;13.87;13.20;;;16.40;1.00;;;;;;5020881;28;20494;-83
2023/09/15 02:50:42;;;;;;;14.20;13.70;;;16.40;1.00;;;;;;5034695;28;20449;-84
2023/09/15 02:53:11;;;;;;;14.87;14.07;;;16.30;1.00;;;;;;5032590;28;20974;-85
2023/09/15 02:55:40;;;;;;;13.23;12.63;;;16.30;1.00;;;;;;5037242;28;20486;-84
2023/09/15 02:58:08;;;;;;;14.00;13.50;;;16.20;1.00;;;;;;5036144;28;20473;-83
2023/09/15 03:00:37;;;;;;;13.63;13.13;;;16.20;1.00;;;;;;5038304;28;20441;-83
2023/09/15 03:03:05;;;;;;;13.23;12.73;;;16.20;1.00;;;;;;5023107;28;20518;-83
2023/09/15 03:05:33;;;;;;;13.57;13.17;;;16.10;1.00;;;;;;5040488;28;21012;-82
2023/09/15 03:08:01;;;;;;;13.40;12.90;;;16.10;1.00;;;;;;5042124;28;21123;-84
2023/09/15 03:10:29;;;;;;;13.70;13.20;;;16.10;1.00;;;;;;5041053;28;20890;-84
2023/09/15 03:12:59;;;;;;;13.70;13.20;;;16.00;1.00;;;;;;5043593;28;20458;-84
2023/09/15 03:15:27;;;;;;;13.63;13.10;;;16.00;1.00;;;;;;5044479;28;20488;-82
2023/09/15 03:17:55;;;;;;;13.97;13.40;;;16.00;1.00;;;;;;5042960;28;20798;-84
2023/09/15 03:20:23;;;;;;;13.73;13.33;;;16.00;1.00;;;;;;5042519;28;20470;-82
2023/09/15 03:22:52;;;;;;;14.10;13.60;;;16.00;1.00;;;;;;5045254;28;20455;-82
2023/09/15 03:25:21;;;;;;;14.63;13.80;;;16.00;1.00;;;;;;5041538;28;20505;-84
2023/09/15 03:27:49;;;;;;;14.23;13.73;;;16.00;1.00;;;;;;5045278;28;21276;-81
2023/09/15 03:30:19;;;;;;;13.80;13.30;;;16.10;1.00;;;;;;5044506;28;20460;-82
2023/09/15 03:32:47;;;;;;;14.33;13.50;;;16.00;1.00;;;;;;5040720;28;20499;-82
2023/09/15 03:35:15;;;;;;;13.50;13.00;;;16.10;1.00;;;;;;5026971;28;20456;-83
2023/09/15 03:37:44;;;;;;;13.80;13.30;;;16.00;1.00;;;;;;5042714;28;20494;-82
2023/09/15 03:40:13;;;;;;;14.23;13.30;;;16.00;1.00;;;;;;5039335;28;20449;-83
2023/09/15 03:42:41;;;;;;;13.20;12.80;;;16.00;1.00;;;;;;5020354;28;20461;-85
2023/09/15 03:45:10;;;;;;;13.67;13.17;;;16.00;1.00;;;;;;5024476;28;21100;-83
2023/09/15 03:47:39;;;;;;;14.90;14.27;;;16.00;1.00;;;;;;5042159;28;20476;-83
2023/09/15 03:50:09;;;;;;;13.67;13.17;;;16.00;1.00;;;;;;5013983;28;20532;-83
2023/09/15 03:52:37;;;;;;;15.40;14.60;;;15.90;1.00;;;;;;5037579;28;20527;-81
2023/09/15 03:55:07;;;;;;;14.20;13.70;;;15.90;1.00;;;;;;5033902;28;20475;-81
2023/09/15 03:57:35;;;;;;;14.77;14.27;;;15.90;1.00;;;;;;5041871;28;20574;-82
2023/09/15 04:03:05;;;;;;;14.17;13.67;;;15.90;1.00;;;;;;5021163;28;20464;-83
2023/09/15 04:05:35;;;;;;;14.37;13.87;;;15.90;1.00;;;;;;5038659;28;20471;-84
2023/09/15 04:08:03;;;;;;;13.83;13.20;;;15.90;1.00;;;;;;5037935;28;20491;-83
2023/09/15 04:10:31;;;;;;;14.30;13.70;;;15.90;1.00;;;;;;5036648;28;20453;-83
2023/09/15 04:12:59;;;;;;;13.87;13.37;;;15.90;1.00;;;;;;5042333;28;20479;-83
2023/09/15 04:15:29;;;;;;;14.90;14.30;;;15.80;1.00;;;;;;5041225;28;20481;-84
2023/09/15 04:17:57;;;;;;;14.60;14.00;;;15.80;1.00;;;;;;5019410;28;20481;-85
2023/09/15 04:20:26;;;;;;;13.30;12.90;;;15.80;1.00;;;;;;5041362;28;20451;-84
2023/09/15 04:23:12;;;;;;;14.40;13.80;;;15.80;1.00;;;;;;5042203;28;20452;-83
2023/09/15 04:25:40;;;;;;;14.10;13.63;;;15.80;1.00;;;;;;5044285;28;20476;-82
2023/09/15 04:28:09;;;;;;;15.83;14.57;;;15.80;1.00;;;;;;5040490;28;20527;-83
2023/09/15 04:30:37;;;;;;;14.77;14.20;;;15.80;1.00;;;;;;5038611;28;22690;-84
2023/09/15 04:33:05;;;;;;;13.43;13.03;;;15.80;1.00;;;;;;5036806;28;20464;-76
2023/09/15 04:35:35;;;;;;;13.57;13.17;;;15.80;1.00;;;;;;5036684;28;20452;-80
2023/09/15 04:38:03;;;;;;;15.00;14.40;;;15.50;1.00;;;;;;5020325;28;20394;-83
2023/09/15 04:40:31;;;;;;;14.37;13.87;;;15.30;13.10;;;;;;5031811;28;20280;-81
2023/09/15 04:43:00;;;;;;;14.93;14.37;;;15.20;92.60;;;;;;5029770;28;20457;-80
2023/09/15 04:45:28;;;;;;;14.73;14.03;;;15.20;99.90;;;;;;5029616;28;20547;-78
2023/09/15 04:47:56;;;;;;;14.50;14.00;;;15.20;99.90;;;;;;5035529;28;20469;-80
2023/09/15 04:50:24;;;;;;;14.77;14.27;;;15.40;99.90;;;;;;5041902;28;20449;-82
2023/09/15 04:52:55;;;;;;;16.10;15.20;;;15.50;17.00;;;;;;5038396;28;20839;-80
2023/09/15 04:55:24;;;;;;;15.77;15.10;;;15.60;1.00;;;;;;5033650;28;20456;-83
2023/09/15 04:57:52;;;;;;;14.90;14.33;;;15.60;1.00;;;;;;5030600;28;20566;-83
2023/09/15 05:00:24;;;;;;;15.10;14.40;;;15.60;1.00;;;;;;5037143;28;20481;-82
2023/09/15 05:02:52;;;;;;;15.03;14.43;;;15.60;1.00;;;;;;5035332;28;20465;-81
2023/09/15 05:05:20;;;;;;;15.57;14.87;;;15.60;1.00;;;;;;5035396;28;20453;-82
2023/09/15 05:07:48;;;;;;;15.70;15.00;;;15.60;1.00;;;;;;5035851;28;20462;-80
2023/09/15 05:10:18;;;;;;;14.90;14.30;;;15.60;1.00;;;;;;5038356;28;20451;-81
2023/09/15 05:12:46;;;;;;;15.13;14.43;;;15.60;1.00;;;;;;5031097;28;20961;-80
2023/09/15 05:15:14;;;;;;;15.10;14.53;;;15.70;1.00;;;;;;5033199;28;20444;-81
2023/09/15 05:17:44;;;;;;;15.00;14.50;;;15.70;1.00;;;;;;5037312;28;20477;-81
2023/09/15 05:20:12;;;;;;;15.63;14.83;;;15.70;1.00;;;;;;5023445;28;20483;-82
2023/09/15 05:22:40;;;;;;;15.03;14.40;;;15.70;1.00;;;;;;5035354;28;20445;-81
2023/09/15 05:25:09;;;;;;;15.50;14.90;;;15.70;1.00;;;;;;5032131;28;21046;-85
2023/09/15 05:27:39;;;;;;;15.60;14.90;;;15.70;1.00;;;;;;5018310;28;20530;-81
2023/09/15 05:30:08;;;;;;;15.33;14.63;;;15.70;1.00;;;;;;5026486;28;20452;-79
2023/09/15 05:32:40;;;;;;;15.13;14.50;;;15.70;1.00;;;;;;5013088;28;20460;-83
2023/09/15 05:35:11;;;;;;;14.83;14.23;;;15.70;1.00;;;;;;5032963;28;20458;-83
2023/09/15 05:37:39;;;;;;;15.40;14.70;;;15.70;1.00;;;;;;5033135;28;20886;-81
2023/09/15 05:40:09;;;;;;;15.37;14.60;;;15.70;1.00;;;;;;5036778;28;20460;-81
2023/09/15 05:42:40;;;;;;;16.30;15.40;;;15.70;1.00;;;;;;5034007;28;20452;-84
2023/09/15 05:45:09;;;;;;;15.53;14.93;;;15.70;1.00;;;;;;5032350;28;20487;-81
2023/09/15 05:47:38;;;;;;;16.57;15.97;;;15.80;1.00;;;;;;5038713;28;20488;-81
2023/09/15 05:50:08;;;;;;;16.27;15.67;;;15.80;1.00;;;;;;5038383;28;20453;-80
2023/09/15 05:52:39;;;;;;;16.10;15.30;;;15.80;1.00;;;;;;5031108;28;20546;-82
2023/09/15 05:55:09;;;;;;;16.70;15.70;;;15.80;1.00;;;;;;5030167;28;20456;-82
2023/09/15 05:57:39;;;;;;;16.40;15.80;;;15.80;1.00;;;;;;5028901;28;20503;-83
2023/09/15 06:00:07;;;;;;;16.73;15.93;;;15.90;1.00;;;;;;5028994;28;20461;-81
2023/09/15 06:02:36;;;;;;;16.53;15.77;;;15.90;1.00;;;;;;5031465;28;20539;-82
2023/09/15 06:05:05;;;;;;;16.67;15.93;;;15.90;1.00;;;;;;5032826;28;20507;-81
2023/09/15 06:07:33;;;;;;;17.20;16.40;;;16.00;1.00;;;;;;5032943;28;20543;-81
2023/09/15 06:10:01;;;;;;;16.80;16.03;;;16.10;1.00;;;;;;5031554;28;20979;-81
2023/09/15 06:12:29;;;;;;;17.20;16.23;;;16.10;1.00;;;;;;5031428;28;20468;-81
2023/09/15 06:14:59;;;;;;;17.00;16.30;;;16.10;1.00;;;;;;5035596;28;20461;-80
2023/09/15 06:17:28;;;;;;;17.50;16.60;;;16.20;1.00;;;;;;5030626;28;20488;-82
2023/09/15 06:19:56;;;;;;;17.40;16.40;;;16.30;1.00;;;;;;5035025;28;20499;-82
2023/09/15 06:22:24;;;;;;;17.27;16.43;;;16.30;1.00;;;;;;5037983;28;20542;-81
2023/09/15 06:24:53;;;;;;;16.67;16.00;;;16.30;1.00;;;;;;5037409;28;20847;-81
2023/09/15 06:27:21;;;;;;;17.03;16.23;;;16.30;1.00;;;;;;5030922;28;20493;-80
2023/09/15 06:29:49;;;;;;;17.30;16.60;;;16.30;1.00;;;;;;5033513;28;20488;-80
2023/09/15 06:32:19;;;;;;;17.43;16.70;;;16.40;1.00;;;;;;5033616;28;20454;-81
2023/09/15 06:34:47;;;;;;;17.43;16.47;;;16.40;1.00;;;;;;5036147;28;21442;-84
2023/09/15 06:37:15;;;;;;;17.00;16.37;;;16.50;1.00;;;;;;5034536;28;20456;-81
2023/09/15 06:39:43;;;;;;;17.90;16.83;;;16.50;1.00;;;;;;5039287;28;20530;-81
2023/09/15 06:42:12;;;;;;;18.10;17.20;;;16.60;1.00;;;;;;5040406;28;20449;-82
2023/09/15 06:44:40;;;;;;;17.70;17.00;;;16.60;1.00;;;;;;5043988;28;20503;-82
2023/09/15 06:47:14;;;;;;;18.03;17.33;;;16.70;1.00;;;;;;5041288;28;20457;-82
2023/09/15 06:49:43;;;;;;;18.47;17.40;;;16.70;1.00;;;;;;5038292;28;20858;-81
2023/09/15 06:52:11;;;;;;;18.00;17.20;;;16.80;1.00;;;;;;5039866;28;20557;-82
2023/09/15 06:54:39;;;;;;;18.27;17.37;;;16.80;1.00;;;;;;5035223;28;20456;-82
2023/09/15 06:57:07;;;;;;;17.43;16.73;;;16.90;1.00;;;;;;5036565;28;20588;-82
2023/09/15 06:59:36;;;;;;;18.40;17.57;;;17.10;1.00;;;;;;5036165;28;20480;-81
2023/09/15 07:02:04;;;;;;;18.13;17.23;;;17.10;1.00;;;;;;5032438;28;20460;-82
2023/09/15 07:04:32;;;;;;;17.30;16.50;;;17.10;1.00;;;;;;5040210;28;20487;-81
2023/09/15 07:07:02;;;;;;;16.90;16.10;;;17.20;1.00;;;;;;5027729;28;20471;-81
2023/09/15 07:09:30;;;;;;;17.97;17.10;;;17.30;1.00;;;;;;5043419;28;20461;-82
2023/09/15 07:11:58;;;;;;;18.73;17.63;;;17.30;1.00;;;;;;5036715;28;20473;-80
2023/09/15 07:14:27;;;;;;;18.30;17.40;;;17.40;1.00;;;;;;5039373;28;20521;-82
2023/09/15 07:16:55;;;;;;;18.57;17.50;;;17.50;1.00;;;;;;5036552;28;20507;-83
2023/09/15 07:19:24;;;;;;;19.03;17.70;;;17.60;1.00;;;;;;5040800;28;20562;-81
2023/09/15 07:21:52;;;;;;;17.90;16.87;;;17.70;1.00;;;;;;5039808;28;20445;-82
2023/09/15 07:24:22;;;;;;;19.77;18.47;;;17.80;1.00;;;;;;5045538;28;20461;-80
2023/09/15 07:26:50;;;;;;;19.40;18.40;;;17.90;1.00;;;;;;5041352;28;20543;-83
2023/09/15 07:29:18;;;;;;;19.27;18.27;;;18.00;1.00;;;;;;5040249;28;20471;-84
2023/09/15 07:31:47;;;;;;;19.80;18.60;;;18.00;1.00;;;;;;5040980;28;20510;-81
2023/09/15 07:34:15;;;;;;;18.77;17.67;;;18.10;1.00;;;;;;5039111;28;20460;-81
2023/09/15 07:36:50;;;;;;;20.23;19.03;;;18.20;1.00;;;;;;5039126;28;20449;-79
2023/09/15 07:39:18;;;;;;;18.90;18.00;;;18.30;1.00;;;;;;5038275;28;20471;-82
2023/09/15 07:41:47;;;;;;;19.00;18.20;;;18.50;1.00;;;;;;5037107;28;20455;-80
2023/09/15 07:44:16;;;;;;;18.73;17.80;;;18.60;1.00;;;;;;5044533;28;20459;-79
2023/09/15 07:46:44;;;;;;;19.23;18.40;;;18.70;1.00;;;;;;5036619;28;21017;-80
2023/09/15 07:49:13;;;;;;;19.90;18.50;;;19.00;1.00;;;;;;5023338;28;20514;-82
2023/09/15 07:51:42;;;;;;;19.20;18.20;;;19.10;1.00;;;;;;5034924;28;20439;-82
2023/09/15 07:54:10;;;;;;;19.90;18.90;;;19.20;1.00;;;;;;5008644;28;20264;-82
2023/09/15 07:56:38;;;;;;;19.33;18.43;;;19.50;1.00;;;;;;5037928;28;20486;-82
2023/09/15 07:59:08;;;;;;;19.67;18.70;;;19.70;1.00;;;;;;5035441;28;20575;-82
2023/09/15 08:01:36;;;;;;;20.10;18.83;;;20.00;1.00;;;;;;5035707;28;20489;-82
2023/09/15 08:07:59;;;;;;;19.30;18.30;;;20.30;1.00;;;;;;5094883;23;20513;-83
2023/09/15 08:10:56;;;;;;;20.87;19.77;;;20.40;1.00;;;;;;5011194;28;20498;-82
2023/09/15 08:13:44;;;;;;;18.30;17.50;;;20.40;1.00;;;;;;5011656;28;20464;-84
2023/09/15 08:20:03;;;;;;;18.80;17.83;;;20.50;1.00;;;;;;4995416;28;20487;-82
2023/09/15 08:22:34;;;;;;;19.43;18.43;;;20.60;1.00;;;;;;4993443;28;20467;-85
2023/09/15 08:25:04;;;;;;;18.60;17.90;;;20.80;1.00;;;;;;4993258;28;20467;-84
2023/09/15 08:27:36;;;;;;;19.70;18.80;;;20.90;1.00;;;;;;5086612;23;20447;-88
2023/09/15 08:38:40;;;;;;;18.17;17.37;;;21.30;1.00;;;;;;5115939;23;20507;-85
2023/09/15 08:41:43;;;;;;;17.17;16.57;;;21.40;1.00;;;;;;5053427;28;20445;-83
2023/09/15 08:47:55;;;;;;;17.00;16.00;;;21.60;99.90;;;;;;5142319;23;20458;-82
2023/09/15 08:50:24;;;;;;;16.67;15.90;;;21.80;99.90;;;;;;5053310;28;20523;-83
2023/09/15 08:52:56;;;;;;;16.13;15.33;;;21.80;99.90;;;;;;5051777;28;20538;-83
2023/09/15 08:55:33;;;;;;;16.77;15.90;;;21.90;99.90;;;;;;5052758;28;20525;-85
2023/09/15 09:02:15;;;;;;;16.20;15.40;;;22.20;99.90;;;;;;5042189;28;20447;-82
2023/09/15 09:17:52;;;;;;;15.30;14.60;;;22.70;99.90;;;;;;5134266;23;20472;-84
2023/09/15 09:20:33;;;;;;;15.03;14.23;;;22.80;99.90;;;;;;5018571;28;20480;-85
2023/09/15 09:23:44;;;;;;;15.40;14.70;;;22.80;99.90;;;;;;4959457;28;20477;-82
2023/09/15 09:26:15;;;;;;;13.20;12.50;;;22.90;99.90;;;;;;5016892;28;20492;-83
2023/09/15 09:28:54;;;;;;;14.27;13.57;;;22.90;99.90;;;;;;5004403;28;20503;-85
2023/09/15 09:31:32;;;;;;;14.10;13.50;;;23.10;99.90;;;;;;4992744;28;20609;-84
2023/09/15 09:34:04;;;;;;;13.53;13.00;;;23.20;99.90;;;;;;4992899;28;20462;-83
2023/09/15 09:37:01;;;;;;;14.03;13.33;;;23.30;99.90;;;;;;4993120;28;20453;-82
2023/09/15 09:58:55;;;;;;;14.67;14.07;;;23.70;99.90;;;;;;5031252;28;20455;-80
2023/09/15 10:01:35;;;;;;;;;;;;;;;;;;;;;
2023/09/15 10:04:29;;;;;;;16.20;15.40;;;23.90;99.90;;;;;;5042906;28;20490;-80
2023/09/15 10:07:01;;;;;;;16.07;15.37;;;24.10;99.90;;;;;;5044921;28;20457;-82
2023/09/15 10:09:37;;;;;;;16.33;15.73;;;24.00;99.90;;;;;;5040644;28;20500;-80
2023/09/15 10:12:29;;;;;;;17.27;16.57;;;24.00;99.90;;;;;;5025355;28;21248;-79
2023/09/15 10:14:59;;;;;;;18.10;17.30;;;24.10;99.90;;;;;;5041264;28;20487;-81
2023/09/15 10:17:54;;;;;;;17.17;16.47;;;24.20;99.90;;;;;;5041315;28;20480;-81
2023/09/15 10:20:23;;;;;;;18.10;17.30;;;24.30;99.90;;;;;;5025478;28;20484;-80
2023/09/15 10:22:52;;;;;;;17.37;16.57;;;24.40;99.90;;;;;;5036536;28;20970;-81
2023/09/15 10:25:21;;;;;;;17.37;16.67;;;24.40;99.90;;;;;;5042769;28;20648;-79
2023/09/15 10:27:49;;;;;;;16.20;15.40;;;24.20;99.90;;;;;;5040435;28;20480;-80
2023/09/15 10:30:19;;;;;;;17.17;16.47;;;24.30;99.90;;;;;;5038667;28;20456;-80
2023/09/15 10:32:49;;;;;;;16.73;16.13;;;24.30;99.90;;;;;;5038397;28;20452;-80
2023/09/15 10:35:18;;;;;;;17.37;16.73;;;24.40;99.90;;;;;;5037854;28;21126;-79
2023/09/15 10:37:48;;;;;;;16.73;16.00;;;24.50;99.90;;;;;;5040477;28;20473;-80
2023/09/15 10:40:17;;;;;;;19.27;18.37;;;24.70;99.90;;;;;;5036318;28;20504;-81
2023/09/15 10:42:49;;;;;;;16.40;15.80;;;24.70;99.90;;;;;;5034598;28;20475;-80
2023/09/15 10:45:23;;;;;;;16.77;16.13;;;24.60;99.90;;;;;;5035733;28;20448;-81
2023/09/15 10:48:00;;;;;;;17.50;16.63;;;24.60;99.90;;;;;;5037820;28;20538;-80
2023/09/15 10:50:33;;;;;;;18.07;17.37;;;24.60;99.90;;;;;;5036312;28;20988;-81
2023/09/15 10:53:08;;;;;;;18.67;17.70;;;24.70;99.90;;;;;;5017876;28;20457;-81
2023/09/15 10:55:37;;;;;;;18.37;17.60;;;24.70;99.90;;;;;;5039623;28;20480;-81
2023/09/15 10:58:06;;;;;;;19.63;18.70;;;24.80;99.90;;;;;;5039166;28;20464;-80
2023/09/15 11:00:36;;;;;;;18.10;17.47;;;24.70;99.90;;;;;;5041873;28;20488;-81
2023/09/15 11:03:06;;;;;;;19.47;18.57;;;24.70;99.90;;;;;;5039226;28;20517;-81
2023/09/15 11:05:36;;;;;;;20.87;19.47;;;24.70;99.90;;;;;;5040193;28;20961;-82
2023/09/15 11:08:06;;;;;;;19.23;18.43;;;24.70;99.90;;;;;;5038586;28;20676;-80
2023/09/15 11:10:35;;;;;;;19.37;18.43;;;24.70;99.90;;;;;;5038768;28;20441;-81
2023/09/15 11:13:12;;;;;;;18.47;17.67;;;24.80;99.90;;;;;;5038619;28;20453;-81
2023/09/15 11:16:28;;;;;;;18.30;17.60;;;24.90;99.90;;;;;;5038833;28;20964;-82
2023/09/15 11:19:02;;;;;;;19.70;18.80;;;24.70;99.90;;;;;;5030204;28;21076;-82
2023/09/15 11:21:52;;;;;;;19.20;18.40;;;24.80;99.90;;;;;;5039689;28;20503;-82
2023/09/15 11:24:57;;;;;;;19.80;18.90;;;24.90;99.90;;;;;;5040916;28;21021;-82
2023/09/15 11:27:48;;;;;;;17.87;17.20;;;24.80;99.90;;;;;;5043977;28;20483;-84
2023/09/15 11:30:16;;;;;;;18.70;17.90;;;24.80;99.90;;;;;;5035877;28;21374;-82
2023/09/15 11:32:45;;;;;;;18.90;18.20;;;24.80;99.90;;;;;;5037992;28;20445;-84
2023/09/15 11:35:17;;;;;;;19.47;18.57;;;24.90;99.90;;;;;;5046421;28;20206;-80
2023/09/15 11:37:46;;;;;;;20.53;19.30;;;24.90;99.90;;;;;;5044155;28;20534;-82
2023/09/15 11:40:21;;;;;;;19.30;18.50;;;24.90;99.90;;;;;;5042813;28;20468;-81
2023/09/15 11:42:53;;;;;;;19.47;18.67;;;24.90;99.90;;;;;;5046241;28;20458;-81
2023/09/15 11:45:26;;;;;;;19.47;18.60;;;24.90;99.90;;;;;;5047518;28;20463;-81
2023/09/15 11:47:59;;;;;;;20.50;19.50;;;25.00;99.90;;;;;;5043174;28;20490;-82
2023/09/15 11:50:29;;;;;;;20.60;19.70;;;24.90;99.90;;;;;;5043220;28;20472;-81
2023/09/15 11:52:58;;;;;;;19.90;18.93;;;24.90;99.90;;;;;;5040850;28;20699;-79
2023/09/15 11:55:27;;;;;;;19.30;18.57;;;25.00;99.90;;;;;;5039033;28;20830;-80
2023/09/15 11:57:57;;;;;;;19.10;18.30;;;25.00;99.90;;;;;;5036782;28;20539;-78
2023/09/15 12:00:28;;;;;;;18.87;18.07;;;25.00;99.90;;;;;;5039817;28;20883;-79
2023/09/15 12:02:57;;;;;;;18.97;18.13;;;25.00;99.90;;;;;;5040477;28;20550;-78
2023/09/15 12:05:27;;;;;;;18.13;17.23;;;25.00;99.90;;;;;;5040276;28;20531;-82
2023/09/15 12:07:59;;;;;;;18.83;18.03;;;25.00;99.90;;;;;;5041027;28;20915;-80
2023/09/15 12:10:27;;;;;;;18.60;17.90;;;25.00;99.90;;;;;;5041164;28;20973;-82
2023/09/15 12:12:57;;;;;;;19.00;18.20;;;25.00;99.90;;;;;;5039778;28;20488;-82
2023/09/15 12:15:27;;;;;;;18.83;17.93;;;25.00;99.90;;;;;;5038883;28;20583;-80
2023/09/15 12:17:56;;;;;;;19.30;18.50;;;25.00;99.90;;;;;;5040827;28;20468;-81
2023/09/15 12:20:25;;;;;;;17.47;16.87;;;25.00;99.90;;;;;;5044909;28;20498;-81
2023/09/15 12:22:53;;;;;;;18.70;18.00;;;25.00;99.90;;;;;;5038874;28;20456;-81
2023/09/15 12:25:24;;;;;;;18.83;18.13;;;25.10;99.90;;;;;;5041766;28;20471;-80
2023/09/15 12:27:53;;;;;;;19.00;18.20;;;25.10;99.90;;;;;;5043637;28;20483;-81
2023/09/15 12:30:23;;;;;;;18.80;18.10;;;25.10;99.90;;;;;;5040985;28;20473;-82
2023/09/15 12:32:53;;;;;;;18.30;17.60;;;25.10;99.90;;;;;;5042617;28;20437;-79
2023/09/15 12:35:22;;;;;;;18.83;17.93;;;25.10;99.90;;;;;;5045178;28;20487;-79
2023/09/15 12:37:54;;;;;;;19.20;18.40;;;25.10;99.90;;;;;;5040977;28;20473;-79
2023/09/15 12:40:23;;;;;;;18.33;17.63;;;25.10;99.90;;;;;;5041824;28;20452;-82
2023/09/15 12:42:52;;;;;;;18.20;17.50;;;25.20;99.90;;;;;;5041866;28;21202;-83
2023/09/15 12:45:21;;;;;;;18.20;17.50;;;25.20;99.90;;;;;;5039817;28;20464;-82
2023/09/15 12:47:49;;;;;;;19.07;18.23;;;25.20;99.90;;;;;;5039239;28;21009;-79
2023/09/15 12:50:17;;;;;;;18.97;18.23;;;25.20;99.90;;;;;;5040153;28;20472;-79
2023/09/15 12:52:45;;;;;;;17.90;17.30;;;25.20;99.90;;;;;;5041591;28;20467;-80
2023/09/15 12:55:15;;;;;;;18.70;17.90;;;25.20;99.90;;;;;;5040327;28;20826;-81
2023/09/15 12:57:45;;;;;;;18.07;17.43;;;25.20;99.90;;;;;;5041997;28;20537;-84
2023/09/15 13:00:14;;;;;;;18.20;17.33;;;25.20;99.90;;;;;;5039625;28;20460;-79
2023/09/15 13:02:48;;;;;;;17.80;17.20;;;25.30;99.90;;;;;;5020722;28;20476;-77
2023/09/15 13:05:17;;;;;;;18.63;17.93;;;25.30;99.90;;;;;;5043284;28;20542;-81
2023/09/15 13:07:46;;;;;;;18.57;17.87;;;25.20;99.90;;;;;;5044394;28;20488;-79
2023/09/15 13:10:14;;;;;;;17.57;16.70;;;25.20;99.90;;;;;;5040799;28;20449;-79
2023/09/15 13:12:43;;;;;;;17.87;17.27;;;25.20;99.90;;;;;;5039285;28;20448;-84
2023/09/15 13:15:13;;;;;;;17.60;16.90;;;25.20;99.90;;;;;;5037070;28;20484;-82
2023/09/15 13:17:44;;;;;;;17.30;16.60;;;25.20;99.90;;;;;;5042002;28;21033;-82
2023/09/15 13:20:13;;;;;;;17.30;16.70;;;25.30;99.90;;;;;;5041112;28;20451;-80
2023/09/15 13:22:41;;;;;;;17.60;16.93;;;25.30;99.90;;;;;;5022540;28;20492;-81
2023/09/15 13:25:28;;;;;;;17.63;16.93;;;25.30;99.90;;;;;;5040742;28;20552;-79
2023/09/15 13:28:16;;;;;;;17.73;17.13;;;25.30;99.90;;;;;;5040641;28;20483;-80
2023/09/15 13:31:00;;;;;;;17.13;16.50;;;25.40;99.90;;;;;;5029054;28;20460;-79
2023/09/15 13:33:40;;;;;;;17.27;16.67;;;25.40;99.90;;;;;;5037890;28;20958;-79
2023/09/15 13:36:48;;;;;;;17.97;17.27;;;25.40;99.90;;;;;;5034436;28;20554;-81
2023/09/15 13:39:19;;;;;;;15.57;15.07;;;25.40;99.90;;;;;;5038667;28;22318;-80
2023/09/15 13:42:16;;;;;;;15.50;15.00;;;25.40;99.90;;;;;;5039536;28;20531;-78
2023/09/15 13:44:48;;;;;;;15.70;15.17;;;25.40;99.90;;;;;;5033541;28;20464;-79
2023/09/15 13:50:25;;;;;;;15.30;14.80;;;25.40;99.90;;;;;;4976140;28;20477;-80
2023/09/15 13:53:07;;;;;;;16.33;15.53;;;25.30;99.90;;;;;;4975181;28;20518;-82
2023/09/15 13:55:41;;;;;;;15.93;15.33;;;25.40;99.90;;;;;;4977151;28;20459;-79
2023/09/15 13:58:16;;;;;;;15.30;14.80;;;25.40;99.90;;;;;;4984526;28;20465;-80
2023/09/15 14:00:56;;;;;;;15.23;14.63;;;25.30;99.90;;;;;;4996097;28;20464;-80
2023/09/15 14:03:30;;;;;;;17.13;16.33;;;25.40;99.90;;;;;;4998041;28;20452;-80
2023/09/15 14:06:05;;;;;;;17.00;16.40;;;25.40;99.90;;;;;;4997367;28;20453;-78
2023/09/15 14:08:38;;;;;;;17.20;16.60;;;25.40;99.90;;;;;;4990463;28;20485;-80
2023/09/15 14:11:13;;;;;;;16.40;15.80;;;25.40;99.90;;;;;;5000208;28;21112;-82
2023/09/15 14:13:41;;;;;;;17.37;16.23;;;25.40;99.90;;;;;;4995054;28;20468;-79
2023/09/15 14:16:09;;;;;;;16.10;15.50;;;25.40;99.90;;;;;;4998009;28;20462;-81
2023/09/15 14:18:37;;;;;;;16.20;15.70;;;25.40;99.90;;;;;;4998556;28;20478;-81
2023/09/15 14:21:07;;;;;;;17.90;17.00;;;25.40;99.90;;;;;;4998920;28;20830;-81
2023/09/15 14:23:35;;;;;;;19.15;18.15;;;25.50;99.90;;;;;;4997157;28;20487;-79
2023/09/15 14:26:03;;;;;;;18.30;17.40;;;25.50;99.90;;;;;;4998983;28;20199;-80